createdAt,value
2018-07-26T00:00:29.029Z,36.10
2018-07-26T00:01:29.020Z,36.20
2018-07-26T00:02:29.008Z,34.80
2018-07-26T00:03:28.996Z,35.90
2018-07-26T00:04:28.993Z,37.20
2018-07-26T00:05:28.975Z,35.60
2018-07-26T00:06:28.968Z,36.70
2018-07-26T00:07:28.957Z,36.50
2018-07-26T00:08:28.942Z,37.40
2018-07-26T00:09:28.936Z,40.10
2018-07-26T00:10:28.923Z,37.90
2018-07-26T00:11:28.922Z,36.90
2018-07-26T00:12:28.904Z,36.30
2018-07-26T00:13:28.896Z,36.50
2018-07-26T00:14:28.889Z,35.20
2018-07-26T00:15:28.870Z,37.20
2018-07-26T00:16:28.864Z,37.20
2018-07-26T00:17:28.849Z,39.50
2018-07-26T00:18:28.839Z,39.40
2018-07-26T00:19:28.833Z,39.70
2018-07-26T00:20:28.818Z,38.70
2018-07-26T00:21:28.809Z,41.20
2018-07-26T00:22:28.801Z,39.80
2018-07-26T00:23:28.792Z,41.50
2018-07-26T00:24:28.782Z,40.00
2018-07-26T00:25:28.768Z,40.50
2018-07-26T00:26:28.757Z,38.30
2018-07-26T00:27:28.762Z,40.00
2018-07-26T00:28:28.744Z,38.30
2018-07-26T00:29:28.725Z,38.40
2018-07-26T00:30:28.714Z,40.90
2018-07-26T00:31:28.714Z,40.80
2018-07-26T00:32:28.700Z,41.70
2018-07-26T00:33:28.692Z,41.30
2018-07-26T00:34:28.673Z,41.50
2018-07-26T00:35:28.669Z,40.30
2018-07-26T00:36:28.654Z,41.70
2018-07-26T00:37:28.640Z,40.40
2018-07-26T00:38:28.631Z,40.90
2018-07-26T00:39:28.622Z,40.00
2018-07-26T00:40:28.609Z,40.70
2018-07-26T00:41:28.604Z,39.60
2018-07-26T00:42:28.590Z,39.40
2018-07-26T00:43:28.580Z,41.30
2018-07-26T00:44:28.570Z,40.10
2018-07-26T00:45:28.562Z,40.70
2018-07-26T00:46:28.553Z,40.60
2018-07-26T00:47:28.745Z,40.00
2018-07-26T00:48:28.530Z,40.00
2018-07-26T00:49:28.518Z,41.30
2018-07-26T00:50:28.515Z,40.00
2018-07-26T00:51:28.504Z,38.10
2018-07-26T00:52:28.494Z,39.40
2018-07-26T00:53:28.478Z,39.20
2018-07-26T00:54:28.481Z,36.30
2018-07-26T00:55:28.457Z,36.20
2018-07-26T00:56:28.449Z,35.10
2018-07-26T00:57:28.443Z,36.00
2018-07-26T00:58:28.429Z,36.00
2018-07-26T00:59:28.419Z,35.50
2018-07-26T01:00:28.410Z,35.10
2018-07-26T01:01:28.394Z,34.30
2018-07-26T01:02:28.384Z,33.80
2018-07-26T01:03:28.377Z,32.30
2018-07-26T01:04:28.363Z,32.80
2018-07-26T01:05:28.360Z,31.40
2018-07-26T01:06:28.350Z,33.30
2018-07-26T01:07:28.333Z,33.00
2018-07-26T01:08:28.322Z,32.70
2018-07-26T01:09:28.353Z,33.70
2018-07-26T01:10:28.303Z,35.30
2018-07-26T01:11:28.491Z,35.60
2018-07-26T01:12:28.278Z,35.10
2018-07-26T01:13:28.277Z,34.90
2018-07-26T01:14:28.259Z,35.70
2018-07-26T01:15:28.252Z,34.00
2018-07-26T01:16:28.238Z,36.80
2018-07-26T01:17:28.232Z,35.60
2018-07-26T01:18:28.226Z,33.30
2018-07-26T01:19:28.207Z,34.80
2018-07-26T01:20:28.197Z,35.40
2018-07-26T01:21:28.185Z,34.70
2018-07-26T01:22:28.174Z,34.00
2018-07-26T01:23:28.164Z,34.60
2018-07-26T01:24:28.154Z,33.70
2018-07-26T01:25:28.149Z,34.00
2018-07-26T01:26:28.135Z,33.70
2018-07-26T01:27:28.124Z,33.90
2018-07-26T01:28:28.113Z,33.50
2018-07-26T01:29:28.105Z,32.40
2018-07-26T01:30:28.094Z,34.60
2018-07-26T01:31:28.080Z,33.70
2018-07-26T01:32:28.078Z,32.90
2018-07-26T01:33:28.068Z,33.50
2018-07-26T01:34:28.053Z,31.90
2018-07-26T01:35:28.039Z,33.70
2018-07-26T01:36:28.033Z,34.00
2018-07-26T01:37:28.020Z,32.80
2018-07-26T01:38:28.010Z,33.60
2018-07-26T01:39:27.996Z,31.70
2018-07-26T01:40:27.989Z,33.10
2018-07-26T01:41:28.177Z,32.50
2018-07-26T01:42:27.964Z,32.00
2018-07-26T01:43:27.960Z,33.00
2018-07-26T01:44:27.945Z,31.90
2018-07-26T01:45:27.938Z,32.40
2018-07-26T01:46:27.920Z,31.90
2018-07-26T01:48:27.903Z,32.90
2018-07-26T01:49:27.894Z,31.80
2018-07-26T01:50:27.880Z,33.20
2018-07-26T01:51:27.879Z,33.60
2018-07-26T01:52:27.859Z,34.40
2018-07-26T01:53:27.857Z,33.30
2018-07-26T01:54:27.846Z,32.60
2018-07-26T01:55:27.833Z,34.80
2018-07-26T01:56:27.815Z,35.00
2018-07-26T01:57:27.812Z,34.40
2018-07-26T01:58:27.800Z,35.50
2018-07-26T01:59:27.793Z,35.60
2018-07-26T02:00:27.781Z,34.30
2018-07-26T02:01:27.771Z,33.40
2018-07-26T02:02:27.764Z,33.10
2018-07-26T02:03:27.748Z,33.50
2018-07-26T02:04:27.736Z,34.80
2018-07-26T02:05:27.727Z,32.60
2018-07-26T02:06:27.718Z,32.40
2018-07-26T02:07:27.709Z,31.00
2018-07-26T02:08:27.695Z,30.80
2018-07-26T02:09:27.685Z,31.80
2018-07-26T02:10:27.666Z,31.90
2018-07-26T02:11:27.663Z,31.40
2018-07-26T02:12:27.648Z,31.50
2018-07-26T02:13:27.636Z,31.90
2018-07-26T02:14:27.627Z,30.40
2018-07-26T02:15:27.654Z,32.20
2018-07-26T02:16:27.611Z,31.00
2018-07-26T02:17:27.592Z,31.30
2018-07-26T02:18:27.782Z,30.70
2018-07-26T02:19:27.576Z,31.50
2018-07-26T02:20:27.565Z,29.90
2018-07-26T02:21:27.559Z,29.30
2018-07-26T02:22:27.540Z,29.80
2018-07-26T02:23:27.535Z,30.60
2018-07-26T02:24:27.525Z,31.00
2018-07-26T02:25:27.510Z,30.00
2018-07-26T02:26:27.496Z,30.00
2018-07-26T02:27:27.494Z,30.80
2018-07-26T02:28:27.477Z,29.60
2018-07-26T02:29:27.464Z,29.20
2018-07-26T02:30:27.452Z,28.00
2018-07-26T02:31:27.444Z,30.50
2018-07-26T02:32:27.436Z,29.40
2018-07-26T02:33:27.437Z,30.20
2018-07-26T02:34:27.414Z,28.90
2018-07-26T02:35:27.409Z,27.80
2018-07-26T02:36:27.388Z,28.30
2018-07-26T02:37:27.384Z,28.40
2018-07-26T02:38:27.371Z,26.90
2018-07-26T02:39:27.358Z,28.20
2018-07-26T02:40:27.356Z,27.80
2018-07-26T02:41:27.347Z,26.90
2018-07-26T02:42:27.327Z,27.60
2018-07-26T02:43:27.324Z,26.90
2018-07-26T02:44:27.306Z,28.30
2018-07-26T02:45:27.298Z,27.30
2018-07-26T02:46:27.292Z,27.90
2018-07-26T02:47:27.277Z,28.10
2018-07-26T02:48:27.263Z,28.10
2018-07-26T02:49:27.261Z,26.70
2018-07-26T02:50:27.244Z,25.30
2018-07-26T02:51:27.248Z,26.70
2018-07-26T02:52:27.222Z,26.70
2018-07-26T02:53:27.214Z,26.80
2018-07-26T02:54:27.204Z,26.70
2018-07-26T02:55:27.191Z,26.20
2018-07-26T02:56:27.181Z,26.80
2018-07-26T02:57:27.177Z,26.30
2018-07-26T02:58:27.160Z,27.40
2018-07-26T02:59:27.152Z,26.20
2018-07-26T03:00:27.348Z,26.10
2018-07-26T03:01:27.139Z,25.40
2018-07-26T03:02:27.128Z,26.10
2018-07-26T03:03:27.109Z,26.40
2018-07-26T03:04:27.106Z,27.40
2018-07-26T03:05:27.096Z,26.50
2018-07-26T03:06:27.090Z,25.30
2018-07-26T03:07:27.071Z,25.80
2018-07-26T03:08:27.063Z,25.90
2018-07-26T03:09:27.050Z,26.80
2018-07-26T03:10:27.081Z,25.10
2018-07-26T03:11:27.032Z,25.50
2018-07-26T03:12:27.023Z,26.80
2018-07-26T03:13:27.005Z,25.30
2018-07-26T03:14:26.997Z,24.80
2018-07-26T03:15:26.989Z,24.90
2018-07-26T03:16:26.979Z,23.50
2018-07-26T03:17:26.972Z,23.20
2018-07-26T03:18:26.955Z,23.80
2018-07-26T03:19:26.943Z,22.50
2018-07-26T03:20:26.947Z,23.10
2018-07-26T03:21:26.923Z,23.40
2018-07-26T03:22:26.915Z,22.90
2018-07-26T03:23:26.902Z,23.50
2018-07-26T03:24:26.896Z,23.20
2018-07-26T03:25:26.883Z,24.00
2018-07-26T03:26:26.880Z,23.80
2018-07-26T03:27:26.871Z,22.60
2018-07-26T03:28:26.860Z,22.00
2018-07-26T03:29:26.845Z,21.60
2018-07-26T03:30:27.040Z,23.10
2018-07-26T03:31:26.827Z,21.80
2018-07-26T03:32:26.811Z,22.90
2018-07-26T03:33:26.807Z,22.20
2018-07-26T03:34:26.795Z,22.50
2018-07-26T03:35:26.788Z,22.50
2018-07-26T03:36:26.779Z,22.10
2018-07-26T03:37:26.768Z,23.00
2018-07-26T03:38:26.752Z,22.10
2018-07-26T03:39:26.752Z,22.40
2018-07-26T03:40:26.739Z,22.20
2018-07-26T03:41:26.722Z,22.40
2018-07-26T03:42:26.909Z,22.50
2018-07-26T03:43:26.728Z,22.60
2018-07-26T03:44:26.695Z,22.30
2018-07-26T03:45:26.685Z,22.60
2018-07-26T03:46:26.675Z,22.00
2018-07-26T03:47:26.659Z,21.70
2018-07-26T03:48:26.847Z,22.70
2018-07-26T03:49:26.639Z,23.00
2018-07-26T03:50:26.627Z,23.10
2018-07-26T03:51:26.854Z,23.30
2018-07-26T03:52:26.608Z,23.10
2018-07-26T03:53:26.600Z,22.90
2018-07-26T03:54:26.593Z,22.90
2018-07-26T03:55:26.584Z,23.20
2018-07-26T03:56:26.569Z,22.50
2018-07-26T03:57:26.559Z,23.00
2018-07-26T03:58:26.544Z,23.30
2018-07-26T03:59:26.541Z,23.30
2018-07-26T04:00:26.730Z,23.00
2018-07-26T04:01:26.518Z,23.60
2018-07-26T04:02:26.509Z,24.70
2018-07-26T04:03:26.571Z,23.80
2018-07-26T04:04:26.485Z,24.60
2018-07-26T04:05:26.502Z,23.80
2018-07-26T04:06:26.466Z,24.60
2018-07-26T04:07:26.457Z,24.90
2018-07-26T04:08:26.446Z,25.60
2018-07-26T04:09:26.431Z,23.10
2018-07-26T04:10:26.423Z,22.50
2018-07-26T04:11:26.411Z,24.40
2018-07-26T04:12:26.401Z,25.20
2018-07-26T04:13:26.397Z,24.70
2018-07-26T04:14:26.390Z,22.80
2018-07-26T04:15:26.375Z,24.20
2018-07-26T04:16:26.367Z,25.70
2018-07-26T04:17:26.350Z,24.20
2018-07-26T04:18:26.548Z,24.40
2018-07-26T04:19:26.339Z,24.10
2018-07-26T04:20:26.363Z,23.80
2018-07-26T04:21:26.306Z,24.70
2018-07-26T04:22:26.298Z,23.00
2018-07-26T04:23:26.289Z,23.10
2018-07-26T04:24:26.274Z,23.40
2018-07-26T04:25:26.265Z,23.10
2018-07-26T04:26:26.255Z,24.50
2018-07-26T04:27:26.244Z,24.30
2018-07-26T04:28:26.234Z,23.70
2018-07-26T04:29:26.226Z,23.10
2018-07-26T04:30:26.212Z,24.40
2018-07-26T04:31:26.210Z,24.80
2018-07-26T04:32:26.193Z,24.50
2018-07-26T04:33:26.184Z,24.70
2018-07-26T04:34:26.170Z,24.30
2018-07-26T04:35:26.164Z,23.40
2018-07-26T04:36:26.153Z,22.90
2018-07-26T04:37:26.138Z,23.40
2018-07-26T04:38:26.130Z,22.00
2018-07-26T04:39:26.122Z,21.30
2018-07-26T04:40:26.107Z,20.90
2018-07-26T04:41:26.096Z,20.50
2018-07-26T04:42:26.086Z,20.70
2018-07-26T04:43:26.076Z,21.00
2018-07-26T04:44:26.070Z,21.40
2018-07-26T04:45:26.064Z,21.60
2018-07-26T04:46:26.044Z,21.60
2018-07-26T04:47:26.034Z,20.10
2018-07-26T04:48:26.022Z,22.10
2018-07-26T04:49:26.012Z,21.90
2018-07-26T04:50:26.001Z,22.70
2018-07-26T04:51:25.986Z,21.50
2018-07-26T04:52:25.976Z,23.00
2018-07-26T04:53:25.967Z,22.50
2018-07-26T04:54:25.961Z,22.10
2018-07-26T04:55:25.945Z,22.20
2018-07-26T04:56:25.933Z,22.00
2018-07-26T04:57:25.922Z,22.60
2018-07-26T04:58:25.912Z,22.90
2018-07-26T04:59:25.902Z,22.80
2018-07-26T05:00:25.890Z,21.90
2018-07-26T05:01:25.881Z,23.10
2018-07-26T05:02:25.870Z,21.70
2018-07-26T05:03:25.859Z,22.70
2018-07-26T05:04:25.848Z,22.10
2018-07-26T05:05:25.838Z,22.80
2018-07-26T05:06:25.829Z,23.00
2018-07-26T05:07:25.816Z,22.00
2018-07-26T05:08:25.806Z,22.50
2018-07-26T05:09:25.799Z,22.10
2018-07-26T05:10:25.785Z,22.20
2018-07-26T05:11:25.776Z,23.10
2018-07-26T05:12:25.963Z,22.10
2018-07-26T05:13:25.756Z,21.80
2018-07-26T05:14:25.743Z,23.10
2018-07-26T05:15:25.733Z,21.30
2018-07-26T05:16:25.721Z,22.60
2018-07-26T05:17:25.716Z,21.20
2018-07-26T05:18:25.759Z,21.60
2018-07-26T05:19:25.691Z,22.30
2018-07-26T05:20:25.680Z,22.50
2018-07-26T05:21:25.668Z,22.00
2018-07-26T05:22:25.659Z,21.70
2018-07-26T05:23:25.655Z,22.70
2018-07-26T05:24:25.638Z,21.90
2018-07-26T05:25:25.628Z,21.70
2018-07-26T05:26:25.618Z,22.20
2018-07-26T05:27:25.608Z,22.00
2018-07-26T05:28:25.595Z,21.50
2018-07-26T05:29:25.586Z,22.50
2018-07-26T05:30:25.577Z,22.10
2018-07-26T05:31:25.565Z,20.60
2018-07-26T05:32:25.556Z,21.40
2018-07-26T05:33:25.546Z,21.70
2018-07-26T05:34:25.535Z,22.30
2018-07-26T05:35:25.524Z,21.10
2018-07-26T05:36:25.511Z,22.60
2018-07-26T05:37:25.505Z,22.70
2018-07-26T05:38:25.491Z,22.50
2018-07-26T05:39:25.482Z,22.40
2018-07-26T05:40:25.471Z,21.90
2018-07-26T05:41:25.461Z,21.70
2018-07-26T05:42:25.650Z,24.10
2018-07-26T05:43:25.439Z,22.90
2018-07-26T05:44:25.428Z,23.50
2018-07-26T05:45:25.420Z,22.60
2018-07-26T05:46:25.409Z,23.10
2018-07-26T05:47:25.399Z,23.30
2018-07-26T05:48:25.391Z,23.60
2018-07-26T05:49:25.378Z,22.70
2018-07-26T05:50:25.366Z,22.40
2018-07-26T05:51:25.361Z,23.20
2018-07-26T05:52:25.346Z,23.30
2018-07-26T05:53:25.343Z,23.30
2018-07-26T05:54:25.526Z,23.30
2018-07-26T05:55:25.317Z,24.70
2018-07-26T05:56:25.305Z,22.30
2018-07-26T05:57:25.296Z,22.30
2018-07-26T05:58:25.285Z,21.90
2018-07-26T05:59:25.275Z,23.10
2018-07-26T06:00:25.264Z,22.80
2018-07-26T06:01:25.256Z,21.30
2018-07-26T06:02:25.242Z,20.70
2018-07-26T06:03:25.232Z,21.10
2018-07-26T06:04:25.221Z,21.30
2018-07-26T06:05:25.214Z,21.80
2018-07-26T06:06:25.200Z,20.60
2018-07-26T06:07:25.202Z,21.00
2018-07-26T06:08:25.184Z,21.20
2018-07-26T06:09:25.169Z,20.40
2018-07-26T06:10:25.159Z,19.80
2018-07-26T06:11:25.153Z,20.10
2018-07-26T06:12:25.342Z,21.20
2018-07-26T06:13:25.131Z,20.30
2018-07-26T06:14:25.122Z,20.40
2018-07-26T06:15:25.111Z,20.50
2018-07-26T06:16:25.104Z,20.20
2018-07-26T06:17:25.090Z,20.10
2018-07-26T06:18:25.080Z,20.70
2018-07-26T06:19:25.075Z,20.70
2018-07-26T06:20:25.059Z,21.60
2018-07-26T06:21:25.047Z,20.10
2018-07-26T06:22:25.037Z,21.70
2018-07-26T06:23:25.026Z,21.90
2018-07-26T06:24:25.215Z,20.30
2018-07-26T06:25:25.005Z,20.80
2018-07-26T06:26:24.994Z,19.90
2018-07-26T06:27:24.985Z,20.20
2018-07-26T06:28:24.975Z,21.80
2018-07-26T06:29:24.963Z,21.10
2018-07-26T06:30:25.153Z,22.40
2018-07-26T06:31:24.944Z,21.40
2018-07-26T06:32:24.970Z,21.00
2018-07-26T06:33:24.943Z,20.90
2018-07-26T06:34:24.929Z,22.70
2018-07-26T06:35:24.900Z,22.00
2018-07-26T06:36:24.888Z,22.00
2018-07-26T06:37:24.878Z,21.80
2018-07-26T06:38:24.860Z,21.40
2018-07-26T06:39:24.893Z,21.50
2018-07-26T06:40:24.836Z,22.20
2018-07-26T06:41:24.826Z,22.30
2018-07-26T06:42:24.815Z,22.60
2018-07-26T06:43:24.804Z,22.20
2018-07-26T06:44:24.797Z,21.90
2018-07-26T06:45:24.782Z,20.70
2018-07-26T06:46:24.772Z,21.40
2018-07-26T06:47:24.762Z,22.20
2018-07-26T06:48:24.951Z,22.20
2018-07-26T06:49:24.740Z,21.40
2018-07-26T06:50:24.732Z,21.20
2018-07-26T06:51:24.719Z,23.00
2018-07-26T06:52:24.709Z,21.80
2018-07-26T06:53:24.697Z,21.90
2018-07-26T06:54:24.688Z,23.00
2018-07-26T06:55:24.681Z,21.50
2018-07-26T06:56:24.666Z,23.10
2018-07-26T06:57:24.655Z,22.60
2018-07-26T06:58:24.657Z,22.30
2018-07-26T06:59:24.634Z,22.40
2018-07-26T07:00:24.623Z,22.30
2018-07-26T07:01:24.614Z,23.40
2018-07-26T07:02:24.603Z,22.20
2018-07-26T07:03:24.593Z,24.40
2018-07-26T07:04:24.581Z,23.70
2018-07-26T07:05:24.571Z,24.50
2018-07-26T07:06:24.761Z,24.30
2018-07-26T07:07:24.551Z,23.30
2018-07-26T07:08:24.546Z,23.70
2018-07-26T07:09:24.534Z,23.80
2018-07-26T07:10:24.519Z,23.10
2018-07-26T07:11:24.509Z,23.10
2018-07-26T07:12:24.498Z,24.30
2018-07-26T07:13:24.488Z,23.50
2018-07-26T07:14:24.478Z,23.10
2018-07-26T07:15:24.467Z,24.10
2018-07-26T07:16:24.456Z,25.40
2018-07-26T07:17:24.448Z,25.80
2018-07-26T07:18:24.436Z,24.50
2018-07-26T07:19:24.426Z,26.20
2018-07-26T07:20:24.419Z,25.10
2018-07-26T07:21:24.404Z,26.20
2018-07-26T07:22:24.394Z,27.70
2018-07-26T07:23:24.386Z,28.40
2018-07-26T07:24:24.573Z,30.70
2018-07-26T07:25:24.362Z,31.70
2018-07-26T07:26:24.354Z,32.90
2018-07-26T07:27:24.341Z,32.30
2018-07-26T07:28:24.330Z,31.70
2018-07-26T07:29:24.319Z,34.00
2018-07-26T07:30:24.509Z,33.90
2018-07-26T07:31:24.299Z,33.20
2018-07-26T07:32:24.287Z,32.70
2018-07-26T07:33:24.278Z,32.40
2018-07-26T07:34:24.267Z,33.90
2018-07-26T07:35:24.268Z,33.80
2018-07-26T07:36:24.445Z,35.20
2018-07-26T07:37:24.234Z,35.90
2018-07-26T07:38:24.224Z,35.40
2018-07-26T07:39:24.213Z,35.50
2018-07-26T07:40:24.201Z,36.10
2018-07-26T07:41:24.193Z,34.90
2018-07-26T07:42:24.189Z,35.40
2018-07-26T07:43:24.170Z,34.60
2018-07-26T07:44:24.159Z,34.90
2018-07-26T07:45:24.149Z,35.50
2018-07-26T07:46:24.139Z,35.20
2018-07-26T07:47:24.224Z,34.60
2018-07-26T07:48:24.316Z,36.10
2018-07-26T07:49:24.108Z,35.10
2018-07-26T07:50:24.096Z,35.40
2018-07-26T07:51:24.084Z,36.00
2018-07-26T07:52:24.073Z,34.30
2018-07-26T07:53:24.062Z,34.40
2018-07-26T07:54:24.053Z,36.00
2018-07-26T07:55:24.041Z,34.60
2018-07-26T07:56:24.030Z,35.50
2018-07-26T07:57:24.019Z,35.50
2018-07-26T07:58:24.009Z,36.00
2018-07-26T07:59:24.054Z,34.80
2018-07-26T08:00:23.986Z,34.60
2018-07-26T08:01:23.976Z,35.00
2018-07-26T08:02:23.965Z,34.80
2018-07-26T08:03:23.955Z,34.80
2018-07-26T08:04:23.944Z,34.90
2018-07-26T08:05:23.966Z,33.90
2018-07-26T08:06:23.923Z,35.10
2018-07-26T08:07:23.913Z,34.30
2018-07-26T08:08:23.902Z,35.40
2018-07-26T08:09:23.891Z,35.70
2018-07-26T08:10:23.880Z,35.40
2018-07-26T08:11:23.870Z,36.80
2018-07-26T08:12:23.859Z,34.70
2018-07-26T08:13:23.849Z,34.00
2018-07-26T08:14:23.838Z,34.90
2018-07-26T08:15:23.827Z,36.50
2018-07-26T08:16:23.816Z,35.60
2018-07-26T08:17:23.807Z,35.70
2018-07-26T08:18:23.795Z,35.60
2018-07-26T08:19:23.784Z,35.60
2018-07-26T08:20:23.773Z,36.60
2018-07-26T08:21:23.804Z,35.10
2018-07-26T08:22:23.753Z,37.30
2018-07-26T08:23:23.743Z,36.90
2018-07-26T08:24:23.931Z,35.70
2018-07-26T08:25:23.721Z,35.50
2018-07-26T08:26:23.710Z,37.00
2018-07-26T08:27:23.701Z,36.20
2018-07-26T08:28:23.688Z,35.60
2018-07-26T08:29:23.724Z,36.70
2018-07-26T08:30:23.667Z,36.40
2018-07-26T08:31:23.657Z,37.50
2018-07-26T08:32:23.646Z,34.90
2018-07-26T08:33:23.635Z,37.40
2018-07-26T08:34:23.625Z,37.80
2018-07-26T08:35:23.618Z,38.00
2018-07-26T08:36:23.603Z,38.40
2018-07-26T08:37:23.594Z,36.90
2018-07-26T08:38:23.581Z,37.70
2018-07-26T08:39:23.571Z,37.60
2018-07-26T08:40:23.560Z,38.00
2018-07-26T08:41:23.549Z,38.20
2018-07-26T08:42:23.538Z,37.70
2018-07-26T08:43:23.528Z,38.60
2018-07-26T08:44:23.518Z,39.70
2018-07-26T08:45:23.506Z,39.40
2018-07-26T08:46:23.496Z,38.90
2018-07-26T08:47:23.487Z,39.70
2018-07-26T08:48:23.473Z,40.50
2018-07-26T08:49:23.467Z,40.70
2018-07-26T08:50:23.453Z,39.40
2018-07-26T08:51:23.441Z,41.70
2018-07-26T08:52:23.431Z,41.10
2018-07-26T08:53:23.420Z,41.40
2018-07-26T08:54:23.610Z,40.80
2018-07-26T08:55:23.398Z,43.70
2018-07-26T08:56:23.389Z,43.60
2018-07-26T08:57:23.376Z,42.70
2018-07-26T08:58:23.365Z,42.80
2018-07-26T08:59:23.357Z,42.60
2018-07-26T09:00:23.542Z,41.50
2018-07-26T09:01:23.331Z,40.50
2018-07-26T09:02:23.321Z,43.00
2018-07-26T09:03:23.310Z,42.10
2018-07-26T09:04:23.299Z,42.40
2018-07-26T09:05:23.288Z,42.50
2018-07-26T09:06:23.277Z,43.60
2018-07-26T09:07:23.266Z,41.00
2018-07-26T09:08:23.256Z,42.60
2018-07-26T09:09:23.244Z,41.20
2018-07-26T09:10:23.233Z,40.90
2018-07-26T09:11:23.224Z,40.60
2018-07-26T09:12:23.210Z,41.70
2018-07-26T09:13:23.226Z,40.60
2018-07-26T09:14:23.188Z,44.00
2018-07-26T09:15:23.178Z,42.40
2018-07-26T09:16:23.166Z,42.30
2018-07-26T09:17:23.176Z,40.10
2018-07-26T09:18:23.350Z,40.70
2018-07-26T09:19:23.133Z,40.50
2018-07-26T09:20:23.122Z,39.30
2018-07-26T09:21:23.111Z,41.10
2018-07-26T09:22:23.100Z,40.30
2018-07-26T09:23:23.090Z,42.60
2018-07-26T09:24:23.083Z,40.90
2018-07-26T09:25:23.067Z,41.70
2018-07-26T09:26:23.120Z,40.50
2018-07-26T09:27:23.050Z,41.00
2018-07-26T09:28:23.033Z,39.60
2018-07-26T09:29:23.022Z,37.90
2018-07-26T09:30:23.011Z,38.60
2018-07-26T09:31:23.000Z,37.50
2018-07-26T09:32:22.991Z,38.40
2018-07-26T09:33:23.003Z,38.80
2018-07-26T09:34:22.967Z,38.10
2018-07-26T09:35:23.013Z,39.70
2018-07-26T09:36:22.944Z,39.60
2018-07-26T09:37:22.932Z,38.70
2018-07-26T09:38:22.924Z,40.40
2018-07-26T09:39:22.912Z,37.90
2018-07-26T09:40:22.902Z,38.80
2018-07-26T09:41:22.888Z,38.20
2018-07-26T09:42:22.877Z,38.50
2018-07-26T09:43:22.866Z,39.90
2018-07-26T09:44:22.854Z,39.00
2018-07-26T09:45:22.843Z,39.60
2018-07-26T09:46:22.833Z,40.10
2018-07-26T09:47:22.831Z,38.90
2018-07-26T09:48:22.809Z,39.80
2018-07-26T09:49:22.799Z,39.70
2018-07-26T09:50:22.787Z,39.20
2018-07-26T09:51:22.777Z,39.10
2018-07-26T09:52:22.765Z,40.50
2018-07-26T09:53:22.755Z,38.50
2018-07-26T09:54:22.744Z,37.90
2018-07-26T09:55:22.733Z,37.10
2018-07-26T09:56:22.721Z,38.60
2018-07-26T09:57:22.710Z,36.90
2018-07-26T09:58:22.701Z,37.60
2018-07-26T09:59:22.689Z,38.60
2018-07-26T10:00:22.925Z,40.70
2018-07-26T10:01:22.666Z,40.80
2018-07-26T10:02:22.656Z,40.60
2018-07-26T10:03:22.644Z,39.70
2018-07-26T10:04:22.633Z,38.90
2018-07-26T10:05:22.622Z,38.40
2018-07-26T10:06:22.611Z,39.30
2018-07-26T10:07:22.606Z,39.10
2018-07-26T10:08:22.590Z,38.90
2018-07-26T10:09:22.578Z,39.00
2018-07-26T10:10:22.567Z,39.00
2018-07-26T10:11:22.557Z,37.00
2018-07-26T10:12:22.745Z,38.30
2018-07-26T10:13:22.534Z,39.30
2018-07-26T10:14:22.523Z,39.90
2018-07-26T10:15:22.512Z,38.40
2018-07-26T10:16:22.502Z,40.30
2018-07-26T10:17:22.490Z,38.30
2018-07-26T10:18:22.679Z,38.40
2018-07-26T10:19:22.469Z,37.80
2018-07-26T10:20:22.456Z,38.70
2018-07-26T10:21:22.445Z,37.80
2018-07-26T10:22:22.433Z,37.20
2018-07-26T10:23:22.422Z,40.10
2018-07-26T10:24:22.412Z,37.70
2018-07-26T10:25:22.400Z,38.20
2018-07-26T10:26:22.389Z,36.30
2018-07-26T10:27:22.377Z,37.90
2018-07-26T10:28:22.369Z,37.50
2018-07-26T10:29:22.355Z,36.60
2018-07-26T10:30:22.344Z,37.00
2018-07-26T10:31:22.333Z,37.50
2018-07-26T10:32:22.321Z,37.90
2018-07-26T10:33:22.310Z,38.10
2018-07-26T10:34:22.300Z,38.30
2018-07-26T10:35:22.289Z,38.60
2018-07-26T10:36:22.277Z,37.60
2018-07-26T10:37:22.267Z,36.60
2018-07-26T10:38:22.255Z,35.70
2018-07-26T10:39:22.245Z,36.40
2018-07-26T10:40:22.234Z,36.70
2018-07-26T10:41:22.224Z,36.50
2018-07-26T10:42:22.213Z,35.90
2018-07-26T10:43:22.200Z,36.20
2018-07-26T10:44:22.190Z,37.30
2018-07-26T10:45:22.180Z,36.50
2018-07-26T10:46:22.173Z,36.80
2018-07-26T10:47:22.158Z,37.40
2018-07-26T10:48:22.145Z,36.70
2018-07-26T10:49:22.137Z,35.50
2018-07-26T10:50:22.125Z,36.60
2018-07-26T10:51:22.112Z,38.10
2018-07-26T10:52:22.100Z,38.60
2018-07-26T10:53:22.090Z,36.90
2018-07-26T10:54:22.079Z,36.10
2018-07-26T10:55:22.068Z,37.60
2018-07-26T10:56:22.057Z,37.40
2018-07-26T10:57:22.046Z,36.40
2018-07-26T10:58:22.035Z,37.30
2018-07-26T10:59:22.025Z,38.10
2018-07-26T11:00:22.069Z,38.80
2018-07-26T11:01:22.005Z,38.20
2018-07-26T11:02:21.991Z,36.70
2018-07-26T11:03:21.980Z,36.50
2018-07-26T11:04:21.969Z,37.50
2018-07-26T11:05:21.958Z,38.00
2018-07-26T11:06:21.947Z,38.20
2018-07-26T11:07:21.937Z,38.70
2018-07-26T11:08:21.925Z,38.70
2018-07-26T11:09:21.918Z,38.90
2018-07-26T11:10:21.912Z,37.90
2018-07-26T11:11:21.893Z,38.20
2018-07-26T11:12:21.881Z,38.30
2018-07-26T11:13:21.870Z,38.10
2018-07-26T11:14:21.863Z,39.10
2018-07-26T11:15:21.853Z,38.30
2018-07-26T11:16:21.837Z,41.10
2018-07-26T11:17:21.977Z,39.10
2018-07-26T11:18:21.818Z,40.20
2018-07-26T11:19:21.806Z,41.10
2018-07-26T11:20:21.795Z,39.70
2018-07-26T11:21:21.828Z,39.60
2018-07-26T11:22:21.772Z,41.50
2018-07-26T11:23:21.761Z,39.40
2018-07-26T11:24:21.793Z,41.70
2018-07-26T11:25:21.740Z,40.40
2018-07-26T11:26:21.728Z,40.50
2018-07-26T11:27:21.717Z,40.70
2018-07-26T11:28:21.707Z,40.80
2018-07-26T11:29:21.894Z,41.80
2018-07-26T11:30:21.684Z,40.60
2018-07-26T11:31:21.673Z,41.50
2018-07-26T11:32:21.716Z,39.70
2018-07-26T11:33:21.650Z,40.20
2018-07-26T11:34:21.639Z,42.10
2018-07-26T11:35:21.630Z,39.50
2018-07-26T11:36:21.617Z,38.40
2018-07-26T11:37:21.607Z,38.60
2018-07-26T11:38:21.595Z,37.70
2018-07-26T11:39:21.586Z,38.00
2018-07-26T11:40:21.574Z,37.00
2018-07-26T11:41:21.634Z,37.20
2018-07-26T11:42:21.562Z,36.70
2018-07-26T11:43:21.544Z,36.60
2018-07-26T11:44:21.532Z,32.70
2018-07-26T11:45:21.524Z,34.60
2018-07-26T11:46:21.511Z,33.70
2018-07-26T11:47:21.502Z,33.60
2018-07-26T11:48:21.489Z,32.30
2018-07-26T11:49:21.479Z,32.80
2018-07-26T11:50:21.497Z,33.90
2018-07-26T11:51:21.467Z,32.50
2018-07-26T11:52:21.461Z,31.60
2018-07-26T11:53:21.460Z,33.90
2018-07-26T11:54:21.460Z,32.70
2018-07-26T11:55:21.436Z,32.90
2018-07-26T11:56:21.411Z,33.80
2018-07-26T11:57:21.401Z,32.50
2018-07-26T11:58:21.398Z,32.90
2018-07-26T11:59:21.544Z,33.40
2018-07-26T12:00:21.379Z,32.70
2018-07-26T12:01:21.382Z,30.90
2018-07-26T12:02:21.383Z,32.40
2018-07-26T12:03:21.346Z,32.30
2018-07-26T12:04:21.336Z,31.60
2018-07-26T12:05:21.327Z,31.00
2018-07-26T12:06:21.318Z,30.00
2018-07-26T12:07:21.310Z,29.50
2018-07-26T12:08:21.300Z,28.20
2018-07-26T12:09:21.291Z,30.90
2018-07-26T12:10:21.487Z,28.70
2018-07-26T12:11:21.274Z,28.50
2018-07-26T12:12:21.265Z,29.50
2018-07-26T12:13:21.256Z,28.90
2018-07-26T12:14:21.310Z,31.20
2018-07-26T12:15:21.241Z,30.90
2018-07-26T12:16:21.231Z,31.50
2018-07-26T12:17:21.225Z,31.20
2018-07-26T12:18:21.226Z,31.90
2018-07-26T12:19:21.209Z,31.00
2018-07-26T12:20:21.200Z,29.80
2018-07-26T12:21:21.191Z,31.80
2018-07-26T12:22:21.200Z,31.20
2018-07-26T12:23:21.186Z,29.60
2018-07-26T12:24:21.178Z,30.70
2018-07-26T12:25:21.169Z,29.60
2018-07-26T12:26:21.160Z,32.00
2018-07-26T12:27:21.154Z,31.60
2018-07-26T12:28:21.156Z,30.90
2018-07-26T12:29:21.153Z,31.10
2018-07-26T12:30:21.131Z,30.70
2018-07-26T12:31:21.125Z,30.90
2018-07-26T12:32:21.122Z,30.10
2018-07-26T12:33:21.101Z,29.10
2018-07-26T12:34:21.092Z,30.30
2018-07-26T12:35:21.081Z,28.60
2018-07-26T12:36:21.072Z,31.20
2018-07-26T12:37:21.068Z,30.70
2018-07-26T12:38:21.055Z,29.90
2018-07-26T12:39:21.054Z,31.10
2018-07-26T12:40:21.046Z,29.90
2018-07-26T12:41:21.039Z,31.40
2018-07-26T12:42:21.031Z,31.60
2018-07-26T12:43:21.024Z,28.70
2018-07-26T12:44:21.016Z,29.80
2018-07-26T12:45:21.009Z,29.70
2018-07-26T12:46:21.001Z,32.90
2018-07-26T12:47:20.998Z,31.30
2018-07-26T12:48:20.987Z,32.00
2018-07-26T12:49:20.978Z,31.60
2018-07-26T12:50:20.975Z,31.10
2018-07-26T12:51:20.964Z,30.70
2018-07-26T12:52:20.956Z,30.80
2018-07-26T12:53:20.949Z,29.00